createdAt,value
2019-06-27T00:00:24.526Z,63.81
2019-06-27T00:02:51.366Z,63.79
2019-06-27T00:05:18.144Z,63.78
2019-06-27T00:07:44.939Z,63.75
2019-06-27T00:10:11.823Z,63.78
2019-06-27T00:12:38.608Z,63.74
2019-06-27T00:15:05.408Z,63.75
2019-06-27T00:17:32.185Z,63.75
2019-06-27T00:19:58.997Z,63.75
2019-06-27T00:22:25.774Z,63.72
2019-06-27T00:24:52.596Z,63.73
2019-06-27T00:27:19.480Z,63.72
2019-06-27T00:29:46.282Z,63.71
2019-06-27T00:32:13.059Z,63.72
2019-06-27T00:34:39.886Z,63.69
2019-06-27T00:37:06.663Z,63.70
2019-06-27T00:39:33.438Z,63.70
2019-06-27T00:42:00.218Z,63.67
2019-06-27T00:44:26.980Z,63.68
2019-06-27T00:46:53.789Z,63.71
2019-06-27T00:49:20.552Z,63.68
2019-06-27T00:51:47.354Z,63.67
2019-06-27T00:54:14.130Z,63.66
2019-06-27T00:56:40.910Z,63.69
2019-06-27T00:59:07.692Z,63.70
2019-06-27T01:01:34.502Z,63.63
2019-06-27T01:04:01.360Z,63.65
2019-06-27T01:06:28.136Z,63.70
2019-06-27T01:08:54.958Z,63.66
2019-06-27T01:11:21.794Z,63.67
2019-06-27T01:13:48.618Z,63.66
2019-06-27T01:16:15.390Z,63.69
2019-06-27T01:18:42.436Z,63.67
2019-06-27T01:21:09.214Z,63.65
2019-06-27T01:23:36.000Z,63.67
2019-06-27T01:26:02.813Z,63.65
2019-06-27T01:28:29.582Z,63.65
2019-06-27T01:30:56.412Z,63.65
2019-06-27T01:33:23.191Z,63.65
2019-06-27T01:35:49.980Z,63.63
2019-06-27T01:38:16.765Z,63.62
2019-06-27T01:40:43.572Z,63.63
2019-06-27T01:43:10.354Z,63.63
2019-06-27T01:45:38.815Z,63.66
2019-06-27T01:48:05.594Z,63.65
2019-06-27T01:50:32.366Z,63.64
2019-06-27T01:52:59.175Z,63.64
2019-06-27T01:55:25.951Z,63.64
2019-06-27T01:57:52.797Z,63.65
2019-06-27T02:00:19.631Z,63.64
2019-06-27T02:02:46.466Z,63.64
2019-06-27T02:05:13.246Z,63.64
2019-06-27T02:07:40.020Z,63.63
2019-06-27T02:10:06.857Z,63.59
2019-06-27T02:12:33.648Z,63.64
2019-06-27T02:15:00.440Z,63.64
2019-06-27T02:17:27.223Z,63.62
2019-06-27T02:19:54.262Z,63.63
2019-06-27T02:22:21.092Z,63.62
2019-06-27T02:24:47.879Z,63.63
2019-06-27T02:27:14.645Z,63.61
2019-06-27T02:29:41.435Z,63.60
2019-06-27T02:32:08.214Z,63.60
2019-06-27T02:34:34.994Z,63.59
2019-06-27T02:37:01.761Z,63.60
2019-06-27T02:39:28.569Z,63.60
2019-06-27T02:41:55.354Z,63.56
2019-06-27T02:44:22.142Z,63.60
2019-06-27T02:46:49.038Z,63.62
2019-06-27T02:49:15.829Z,63.58
2019-06-27T02:51:42.620Z,63.61
2019-06-27T02:54:09.474Z,63.57
2019-06-27T02:56:36.274Z,63.60
2019-06-27T02:59:03.088Z,63.57
2019-06-27T03:01:29.916Z,63.60
2019-06-27T03:03:56.700Z,63.58
2019-06-27T03:06:23.480Z,63.57
2019-06-27T03:08:50.273Z,63.59
2019-06-27T03:11:17.069Z,63.58
2019-06-27T03:13:43.838Z,63.57
2019-06-27T03:16:10.726Z,63.58
2019-06-27T03:18:37.511Z,63.58
2019-06-27T03:21:04.294Z,63.59
2019-06-27T03:23:31.092Z,63.58
2019-06-27T03:25:57.931Z,63.58
2019-06-27T03:28:24.726Z,63.57
2019-06-27T03:30:51.501Z,63.54
2019-06-27T03:33:18.279Z,63.57
2019-06-27T03:35:45.051Z,63.57
2019-06-27T03:38:12.190Z,63.57
2019-06-27T03:40:38.971Z,63.52
2019-06-27T03:43:05.758Z,63.57
2019-06-27T03:45:32.531Z,63.52
2019-06-27T03:47:59.326Z,63.56
2019-06-27T03:50:26.105Z,63.56
2019-06-27T03:52:52.908Z,63.58
2019-06-27T03:55:19.668Z,63.56
2019-06-27T03:57:46.449Z,63.53
2019-06-27T04:00:13.239Z,63.54
2019-06-27T04:02:40.016Z,63.52
2019-06-27T04:05:07.060Z,63.53
2019-06-27T04:07:33.931Z,63.52
2019-06-27T04:10:00.688Z,63.51
2019-06-27T04:12:27.470Z,63.53
2019-06-27T04:14:54.250Z,63.54
2019-06-27T04:17:21.277Z,63.51
2019-06-27T04:19:48.069Z,63.51
2019-06-27T04:22:17.453Z,63.49
2019-06-27T04:24:43.655Z,63.50
2019-06-27T04:27:10.452Z,63.52
2019-06-27T04:29:37.221Z,63.52
2019-06-27T04:32:04.039Z,63.51
2019-06-27T04:34:30.824Z,63.49
2019-06-27T04:36:57.603Z,63.49
2019-06-27T04:39:24.386Z,63.51
2019-06-27T04:41:51.175Z,63.53
2019-06-27T04:44:17.938Z,63.49
2019-06-27T04:46:45.047Z,63.48
2019-06-27T04:49:13.735Z,63.49
2019-06-27T04:51:40.334Z,63.48
2019-06-27T04:54:07.156Z,63.48
2019-06-27T04:56:33.920Z,63.48
2019-06-27T04:59:00.688Z,63.49
2019-06-27T05:01:27.746Z,63.43
2019-06-27T05:03:54.586Z,63.48
2019-06-27T05:06:21.630Z,63.49
2019-06-27T05:08:48.446Z,63.45
2019-06-27T05:11:15.204Z,63.45
2019-06-27T05:13:42.031Z,63.46
2019-06-27T05:16:08.792Z,63.44
2019-06-27T05:18:35.606Z,63.45
2019-06-27T05:21:02.379Z,63.45
2019-06-27T05:23:29.199Z,63.44
2019-06-27T05:25:56.008Z,63.43
2019-06-27T05:28:23.113Z,63.44
2019-06-27T05:30:51.578Z,63.47
2019-06-27T05:33:18.386Z,63.45
2019-06-27T05:35:45.210Z,63.46
2019-06-27T05:38:11.973Z,63.42
2019-06-27T05:40:38.763Z,63.42
2019-06-27T05:43:05.714Z,63.45
2019-06-27T05:45:32.560Z,63.45
2019-06-27T05:47:59.405Z,63.41
2019-06-27T05:50:26.288Z,63.36
2019-06-27T05:52:53.079Z,63.42
2019-06-27T05:55:19.890Z,63.42
2019-06-27T05:57:46.703Z,63.41
2019-06-27T06:00:27.380Z,63.36
2019-06-27T06:02:42.018Z,63.40
2019-06-27T06:05:08.799Z,63.36
2019-06-27T06:07:35.716Z,63.40
2019-06-27T06:10:02.515Z,63.36
2019-06-27T06:12:29.320Z,63.40
2019-06-27T06:14:56.121Z,63.37
2019-06-27T06:17:22.950Z,63.37
2019-06-27T06:19:49.799Z,63.36
2019-06-27T06:22:16.566Z,63.37
2019-06-27T06:24:43.354Z,63.35
2019-06-27T06:27:10.143Z,63.35
2019-06-27T06:29:36.918Z,63.34
2019-06-27T06:32:03.681Z,63.34
2019-06-27T06:34:30.509Z,63.33
2019-06-27T06:36:57.333Z,63.33
2019-06-27T06:39:24.174Z,63.31
2019-06-27T06:41:50.950Z,63.33
2019-06-27T06:44:17.731Z,63.30
2019-06-27T06:46:44.504Z,63.30
2019-06-27T06:49:11.291Z,63.29
2019-06-27T06:51:38.091Z,63.27
2019-06-27T06:54:04.870Z,63.31
2019-06-27T06:56:31.646Z,63.27
2019-06-27T06:58:58.419Z,63.25
2019-06-27T07:01:25.229Z,63.27
2019-06-27T07:03:51.990Z,63.24
2019-06-27T07:06:18.773Z,63.27
2019-06-27T07:08:45.558Z,63.30
2019-06-27T07:11:12.371Z,63.22
2019-06-27T07:13:39.136Z,63.22
2019-06-27T07:16:05.927Z,63.26
2019-06-27T07:18:32.728Z,63.25
2019-06-27T07:20:59.496Z,63.24
2019-06-27T07:23:26.278Z,63.26
2019-06-27T07:25:53.058Z,63.23
2019-06-27T07:28:19.881Z,63.23
2019-06-27T07:30:46.641Z,63.23
2019-06-27T07:33:13.466Z,63.22
2019-06-27T07:35:40.244Z,63.21
2019-06-27T07:38:07.050Z,63.22
2019-06-27T07:40:33.816Z,63.21
2019-06-27T07:43:00.629Z,63.20
2019-06-27T07:45:27.459Z,63.21
2019-06-27T07:47:54.299Z,63.20
2019-06-27T07:50:21.160Z,63.21
2019-06-27T07:52:47.932Z,63.17
2019-06-27T07:55:14.723Z,63.19
2019-06-27T07:57:41.515Z,63.16
2019-06-27T08:00:08.300Z,63.18
2019-06-27T08:02:35.121Z,63.19
2019-06-27T08:05:01.885Z,63.20
2019-06-27T08:07:28.659Z,63.14
2019-06-27T08:09:55.424Z,63.19
2019-06-27T08:12:22.277Z,63.15
2019-06-27T08:14:49.074Z,63.17
2019-06-27T08:17:15.927Z,63.17
2019-06-27T08:19:42.715Z,63.18
2019-06-27T08:22:09.524Z,63.14
2019-06-27T08:24:36.313Z,63.16
2019-06-27T08:27:03.139Z,63.15
2019-06-27T08:29:29.905Z,63.16
2019-06-27T08:31:56.682Z,63.15
2019-06-27T08:34:23.466Z,63.13
2019-06-27T08:36:50.261Z,63.14
2019-06-27T08:39:17.125Z,63.14
2019-06-27T08:41:43.903Z,63.15
2019-06-27T08:44:10.680Z,63.12
2019-06-27T08:46:37.448Z,63.14
2019-06-27T08:49:04.262Z,63.13
2019-06-27T08:51:31.045Z,63.18
2019-06-27T08:53:57.881Z,63.11
2019-06-27T08:56:24.982Z,63.12
2019-06-27T08:58:51.794Z,63.13
2019-06-27T09:01:18.871Z,63.11
2019-06-27T09:03:45.770Z,63.11
2019-06-27T09:06:12.599Z,63.12
2019-06-27T09:08:39.380Z,63.11
2019-06-27T09:11:06.248Z,63.08
2019-06-27T09:13:33.032Z,63.12
2019-06-27T09:15:59.901Z,63.08
2019-06-27T09:18:26.659Z,63.06
2019-06-27T09:20:53.461Z,63.08
2019-06-27T09:23:20.248Z,63.11
2019-06-27T09:25:47.082Z,63.10
2019-06-27T09:28:13.890Z,63.10
2019-06-27T09:30:40.680Z,63.04
2019-06-27T09:33:07.491Z,63.06
2019-06-27T09:35:34.290Z,63.09
2019-06-27T09:38:01.159Z,63.08
2019-06-27T09:40:28.021Z,63.05
2019-06-27T09:42:54.811Z,63.08
2019-06-27T09:45:21.593Z,63.05
2019-06-27T09:47:48.399Z,63.08
2019-06-27T09:50:15.218Z,63.05
2019-06-27T09:52:41.980Z,63.08
2019-06-27T09:55:08.766Z,63.05
2019-06-27T09:57:35.634Z,63.06
2019-06-27T10:00:02.463Z,63.08
2019-06-27T10:02:41.064Z,63.04
2019-06-27T10:04:57.858Z,63.04
2019-06-27T10:07:24.659Z,63.02
2019-06-27T10:09:51.434Z,63.05
2019-06-27T10:12:18.226Z,63.05
2019-06-27T10:14:45.029Z,63.05
2019-06-27T10:17:11.794Z,63.00
2019-06-27T10:19:38.595Z,63.04
2019-06-27T10:22:05.369Z,63.02
2019-06-27T10:24:32.253Z,63.02
2019-06-27T10:26:59.020Z,63.01
2019-06-27T10:29:25.833Z,63.01
2019-06-27T10:31:52.741Z,63.01
2019-06-27T10:34:19.550Z,63.02
2019-06-27T10:36:46.360Z,62.95
2019-06-27T10:39:13.132Z,63.00
2019-06-27T10:41:39.939Z,63.01
2019-06-27T10:44:06.756Z,62.99
2019-06-27T10:46:33.534Z,63.01
2019-06-27T10:49:00.352Z,62.95
2019-06-27T10:51:27.425Z,62.97
2019-06-27T10:53:54.238Z,62.96
2019-06-27T10:56:21.085Z,63.00
2019-06-27T10:58:47.856Z,62.97
2019-06-27T11:01:14.675Z,62.97
2019-06-27T11:03:41.455Z,62.93
2019-06-27T11:06:08.292Z,62.96
2019-06-27T11:08:35.144Z,62.96
2019-06-27T11:11:01.967Z,62.95
2019-06-27T11:13:28.802Z,62.95
2019-06-27T11:15:55.628Z,62.93
2019-06-27T11:18:22.438Z,62.95
2019-06-27T11:20:49.219Z,62.91
2019-06-27T11:23:16.027Z,62.96
2019-06-27T11:25:42.849Z,62.96
2019-06-27T11:28:10.342Z,62.94
2019-06-27T11:30:37.234Z,62.92
2019-06-27T11:33:04.058Z,62.94
2019-06-27T11:35:30.860Z,62.92
2019-06-27T11:37:57.694Z,62.92
2019-06-27T11:40:24.483Z,62.93
2019-06-27T11:42:51.329Z,62.88
2019-06-27T11:45:18.108Z,62.91
2019-06-27T11:47:44.881Z,62.88
2019-06-27T11:50:11.671Z,62.89
2019-06-27T11:52:38.476Z,62.88
2019-06-27T11:55:05.507Z,62.90
2019-06-27T11:57:32.310Z,62.90
2019-06-27T11:59:59.096Z,62.90
2019-06-27T12:02:25.871Z,62.89
2019-06-27T12:04:52.649Z,62.86
2019-06-27T12:07:19.422Z,62.88
2019-06-27T12:09:46.188Z,62.91
2019-06-27T12:12:12.975Z,62.88
2019-06-27T12:14:39.754Z,62.86
2019-06-27T12:17:06.581Z,62.88
2019-06-27T12:19:33.348Z,62.84
2019-06-27T12:22:00.121Z,62.89
2019-06-27T12:24:26.951Z,62.88
2019-06-27T12:26:53.736Z,62.84
2019-06-27T12:29:20.856Z,62.86
2019-06-27T12:31:51.339Z,62.84
2019-06-27T12:34:16.241Z,62.84
2019-06-27T12:36:43.069Z,62.82
2019-06-27T12:39:09.844Z,62.87
2019-06-27T12:41:36.634Z,62.84
2019-06-27T12:44:03.751Z,62.84
2019-06-27T12:46:30.561Z,62.83
2019-06-27T12:48:57.380Z,62.82
2019-06-27T12:51:24.196Z,62.83
2019-06-27T12:53:50.973Z,62.86
2019-06-27T12:56:17.751Z,62.82
2019-06-27T12:58:44.522Z,62.82
2019-06-27T13:01:11.354Z,62.83
2019-06-27T13:03:38.143Z,62.86
2019-06-27T13:06:04.905Z,62.86
2019-06-27T13:08:31.694Z,62.83
2019-06-27T13:10:58.491Z,62.81
2019-06-27T13:13:25.277Z,62.80
2019-06-27T13:15:52.054Z,62.82
2019-06-27T13:18:18.846Z,62.78
2019-06-27T13:20:57.152Z,62.84
2019-06-27T13:23:14.295Z,62.83
2019-06-27T13:25:41.068Z,62.81
2019-06-27T13:28:07.907Z,62.80
2019-06-27T13:30:34.699Z,62.81
2019-06-27T13:33:01.471Z,62.81
2019-06-27T13:35:28.261Z,62.81
2019-06-27T13:37:55.025Z,62.82
2019-06-27T13:40:21.868Z,62.83
2019-06-27T13:42:48.638Z,62.84
2019-06-27T13:45:15.441Z,62.80
2019-06-27T13:47:42.200Z,62.80
2019-06-27T13:50:08.992Z,62.81
2019-06-27T13:52:35.749Z,62.78
2019-06-27T13:55:02.552Z,62.80
2019-06-27T13:57:29.366Z,62.81
2019-06-27T13:59:56.160Z,62.80
2019-06-27T14:02:22.958Z,62.80
2019-06-27T14:04:57.113Z,62.81
2019-06-27T14:07:18.286Z,62.80
2019-06-27T14:09:53.724Z,62.78
2019-06-27T14:12:13.614Z,62.78
2019-06-27T14:14:40.400Z,62.79
2019-06-27T14:17:07.225Z,62.79
2019-06-27T14:19:34.008Z,62.78
2019-06-27T14:22:00.782Z,62.80
2019-06-27T14:24:27.641Z,62.78
2019-06-27T14:26:54.419Z,62.83
2019-06-27T14:29:21.198Z,62.82
2019-06-27T14:31:47.995Z,62.84
2019-06-27T14:34:14.774Z,62.84
2019-06-27T14:36:41.545Z,62.84
2019-06-27T14:39:08.339Z,62.79
2019-06-27T14:41:35.104Z,62.79
2019-06-27T14:44:01.902Z,62.77
2019-06-27T14:46:28.668Z,62.78
2019-06-27T14:48:56.881Z,62.78
2019-06-27T14:51:23.827Z,62.77
2019-06-27T14:53:50.634Z,62.80
2019-06-27T14:56:17.460Z,62.77
2019-06-27T14:58:44.300Z,62.77
2019-06-27T15:01:11.080Z,62.78
2019-06-27T15:03:37.925Z,62.79
2019-06-27T15:06:04.726Z,62.75
2019-06-27T15:08:31.506Z,62.77
2019-06-27T15:10:58.337Z,62.78
2019-06-27T15:13:25.109Z,62.77
2019-06-27T15:15:51.910Z,62.76
2019-06-27T15:18:19.066Z,62.74
2019-06-27T15:20:45.916Z,62.75
2019-06-27T15:23:12.736Z,62.77
2019-06-27T15:25:39.514Z,62.76
2019-06-27T15:28:06.277Z,62.74
2019-06-27T15:30:33.061Z,62.73
2019-06-27T15:32:59.868Z,62.77
2019-06-27T15:35:26.634Z,62.79
2019-06-27T15:37:53.703Z,62.78
2019-06-27T15:40:20.515Z,62.77
2019-06-27T15:42:47.333Z,62.80
2019-06-27T15:45:14.097Z,62.77
2019-06-27T15:47:40.886Z,62.79
2019-06-27T15:50:07.678Z,62.76
2019-06-27T15:52:34.453Z,62.78
2019-06-27T15:55:01.249Z,62.74
2019-06-27T15:57:28.030Z,62.75
2019-06-27T15:59:54.793Z,62.79
2019-06-27T16:02:21.561Z,62.75
2019-06-27T16:04:48.354Z,62.74
2019-06-27T16:07:15.212Z,62.74
2019-06-27T16:09:41.986Z,62.76
2019-06-27T16:12:08.807Z,62.77
2019-06-27T16:14:35.585Z,62.79
2019-06-27T16:17:02.391Z,62.77
2019-06-27T16:19:29.166Z,62.75
2019-06-27T16:21:56.011Z,62.77
2019-06-27T16:24:22.780Z,62.74
2019-06-27T16:26:49.635Z,62.73
2019-06-27T16:29:16.451Z,62.75
2019-06-27T16:31:43.288Z,62.78
2019-06-27T16:34:10.147Z,62.74
2019-06-27T16:36:37.040Z,62.76
2019-06-27T16:39:04.999Z,62.76
2019-06-27T16:41:31.836Z,62.72
2019-06-27T16:43:58.686Z,62.71
2019-06-27T16:46:25.491Z,62.73
2019-06-27T16:48:52.257Z,62.71
2019-06-27T16:51:20.582Z,62.72
2019-06-27T16:53:47.596Z,62.73
2019-06-27T16:56:14.375Z,62.74
2019-06-27T16:58:41.162Z,62.74
2019-06-27T17:01:07.953Z,62.74
2019-06-27T17:03:34.742Z,62.77
2019-06-27T17:06:01.587Z,62.76
2019-06-27T17:08:28.404Z,62.76
2019-06-27T17:10:58.550Z,62.78
2019-06-27T17:13:23.692Z,62.72
2019-06-27T17:15:50.475Z,62.77
2019-06-27T17:18:17.268Z,62.75
2019-06-27T17:20:44.184Z,62.74
2019-06-27T17:23:11.272Z,62.73
2019-06-27T17:25:38.072Z,62.74
2019-06-27T17:28:04.856Z,62.75
2019-06-27T17:30:31.648Z,62.75
2019-06-27T17:32:58.418Z,62.74
2019-06-27T17:35:25.252Z,62.76
2019-06-27T17:37:52.016Z,62.74
2019-06-27T17:40:18.827Z,62.78
2019-06-27T17:42:45.659Z,62.75
2019-06-27T17:45:12.538Z,62.70
2019-06-27T17:47:39.803Z,62.71
2019-06-27T17:50:06.606Z,62.74
2019-06-27T17:52:33.402Z,62.74
2019-06-27T17:55:00.170Z,62.76
2019-06-27T17:57:26.985Z,62.72
2019-06-27T17:59:53.754Z,62.76
2019-06-27T18:02:20.556Z,62.76
2019-06-27T18:04:47.335Z,62.77
2019-06-27T18:07:15.214Z,62.74
2019-06-27T18:09:42.088Z,62.72
2019-06-27T18:12:08.900Z,62.76
2019-06-27T18:14:35.679Z,62.75
2019-06-27T18:17:02.486Z,62.77
2019-06-27T18:19:29.252Z,62.77
2019-06-27T18:21:56.044Z,62.75
2019-06-27T18:24:22.810Z,62.72
2019-06-27T18:26:49.642Z,62.74
2019-06-27T18:29:16.468Z,62.72
2019-06-27T18:31:43.252Z,62.74
2019-06-27T18:34:10.078Z,62.76
2019-06-27T18:36:37.101Z,62.74
2019-06-27T18:39:04.194Z,62.76
2019-06-27T18:41:30.978Z,62.74
2019-06-27T18:43:57.795Z,62.71
2019-06-27T18:46:24.610Z,62.73
2019-06-27T18:48:52.140Z,62.75
2019-06-27T18:51:19.034Z,62.69
2019-06-27T18:53:45.813Z,62.71
2019-06-27T18:56:12.604Z,62.72
2019-06-27T18:58:39.368Z,62.73
2019-06-27T19:01:06.207Z,62.72
2019-06-27T19:03:32.982Z,62.71
2019-06-27T19:05:59.799Z,62.69
2019-06-27T19:08:26.560Z,62.73
2019-06-27T19:10:53.401Z,62.70
2019-06-27T19:13:20.172Z,62.71
2019-06-27T19:15:46.938Z,62.75
2019-06-27T19:18:31.793Z,62.70
2019-06-27T19:21:00.240Z,62.75
2019-06-27T19:23:31.464Z,62.69
2019-06-27T19:25:58.808Z,62.68
2019-06-27T19:28:25.585Z,62.70
2019-06-27T19:30:52.358Z,62.71
2019-06-27T19:33:19.147Z,62.69
2019-06-27T19:35:45.953Z,62.68
2019-06-27T19:38:12.750Z,62.72
2019-06-27T19:40:39.548Z,62.71
2019-06-27T19:43:06.358Z,62.69
2019-06-27T19:45:33.517Z,62.66
2019-06-27T19:48:00.299Z,62.72
2019-06-27T19:50:27.097Z,62.72
2019-06-27T19:52:53.892Z,62.67
2019-06-27T19:55:20.705Z,62.69
2019-06-27T19:57:47.487Z,62.69
2019-06-27T20:00:14.262Z,62.71
2019-06-27T20:02:41.310Z,62.69
2019-06-27T20:05:08.082Z,62.71
2019-06-27T20:07:34.898Z,62.67
2019-06-27T20:10:01.672Z,62.68
2019-06-27T20:12:28.464Z,62.69
2019-06-27T20:14:55.239Z,62.69
2019-06-27T20:17:22.046Z,62.69
2019-06-27T20:19:48.826Z,62.71
2019-06-27T20:22:15.622Z,62.71
2019-06-27T20:24:42.397Z,62.71
2019-06-27T20:27:09.178Z,62.73
2019-06-27T20:29:35.957Z,62.68
2019-06-27T20:32:02.784Z,62.69
2019-06-27T20:34:29.572Z,62.71
2019-06-27T20:36:56.410Z,62.68
2019-06-27T20:39:23.206Z,62.72
2019-06-27T20:41:49.991Z,62.68
2019-06-27T20:44:16.764Z,62.71
2019-06-27T20:46:43.558Z,62.71
2019-06-27T20:49:10.344Z,62.71
2019-06-27T20:51:37.149Z,62.69
2019-06-27T20:54:03.947Z,62.68
2019-06-27T20:56:30.728Z,62.71
2019-06-27T20:58:57.506Z,62.69
2019-06-27T21:01:24.293Z,62.69
2019-06-27T21:03:51.068Z,62.73
2019-06-27T21:06:17.861Z,62.71
2019-06-27T21:08:51.217Z,62.68
2019-06-27T21:11:13.146Z,62.72
2019-06-27T21:13:39.936Z,62.69
2019-06-27T21:16:06.723Z,62.68
2019-06-27T21:18:33.484Z,62.69
2019-06-27T21:21:00.281Z,62.73
2019-06-27T21:23:27.071Z,62.69
2019-06-27T21:25:53.868Z,62.72
2019-06-27T21:28:20.701Z,62.71
2019-06-27T21:30:47.470Z,62.69
2019-06-27T21:33:14.256Z,62.69
2019-06-27T21:35:41.030Z,62.72
2019-06-27T21:38:07.820Z,62.71
2019-06-27T21:40:34.654Z,62.68
2019-06-27T21:43:01.481Z,62.69
2019-06-27T21:45:28.257Z,62.69
2019-06-27T21:47:55.091Z,62.72
2019-06-27T21:50:21.876Z,62.69
2019-06-27T21:52:48.653Z,62.68
2019-06-27T21:55:15.452Z,62.70
2019-06-27T21:57:42.231Z,62.73
2019-06-27T22:00:08.998Z,62.71
2019-06-27T22:02:35.775Z,62.69
2019-06-27T22:05:02.553Z,62.72
2019-06-27T22:07:29.326Z,62.72
2019-06-27T22:09:56.118Z,62.71
2019-06-27T22:12:22.910Z,62.71
2019-06-27T22:14:49.702Z,62.72
2019-06-27T22:17:16.474Z,62.71
2019-06-27T22:19:43.260Z,62.71
2019-06-27T22:22:10.030Z,62.69
2019-06-27T22:24:36.792Z,62.68
2019-06-27T22:27:03.599Z,62.71
2019-06-27T22:29:30.438Z,62.69
2019-06-27T22:31:57.214Z,62.69
2019-06-27T22:34:23.994Z,62.68
2019-06-27T22:36:51.265Z,62.67
2019-06-27T22:39:40.493Z,62.71
2019-06-27T22:42:22.412Z,62.68
2019-06-27T22:45:07.494Z,62.71
2019-06-27T22:47:52.614Z,62.71
2019-06-27T22:50:37.297Z,62.71
2019-06-27T22:53:08.771Z,62.70
2019-06-27T22:55:35.614Z,62.71
2019-06-27T22:58:02.426Z,62.71
2019-06-27T23:00:29.265Z,62.73
2019-06-27T23:02:56.109Z,62.71
2019-06-27T23:05:23.010Z,62.72
2019-06-27T23:07:49.893Z,62.71
2019-06-27T23:10:16.676Z,62.76
2019-06-27T23:12:43.490Z,62.74
2019-06-27T23:15:10.266Z,62.71
2019-06-27T23:17:37.063Z,62.73
2019-06-27T23:20:03.912Z,62.75
2019-06-27T23:22:30.774Z,62.71
2019-06-27T23:24:57.549Z,62.75
2019-06-27T23:27:24.350Z,62.73
2019-06-27T23:29:51.414Z,62.74
2019-06-27T23:32:18.253Z,62.73
2019-06-27T23:34:45.054Z,62.73
2019-06-27T23:37:12.044Z,62.72
2019-06-27T23:39:38.824Z,62.71
2019-06-27T23:42:05.600Z,62.73
2019-06-27T23:44:32.383Z,62.75
2019-06-27T23:46:59.292Z,62.73
2019-06-27T23:49:26.237Z,62.70
2019-06-27T23:51:53.035Z,62.74
2019-06-27T23:54:20.114Z,62.69
2019-06-27T23:56:47.337Z,62.69
2019-06-27T23:59:14.171Z,62.70
